Hillman, Mississippi
Current Conditions -  °F | °C
As of 7:56 AM on Monday 26 Jan 2015 (Local Time) from KMOB Reporting Station
Few Clouds Few Clouds  
Wind Chill: 39°   Ceiling: Unl
Heat Index: 45°   Visibility: 10mi
Dew Point: 35°   Wind: 12mph
Humidity: 68%   Direction: 310°NW
Pressure: 30.05"   Gusts: 17mph
Location:  31.1153°N, 88.5168°W
Report Text: KMOB 261356Z 31010G15KT 10SM FEW200 07/02 A3005 RMK AO2 SLP174 T00720017
Loading
Personal Weather Stations






























Interactive Weather Map New forecast layout! Learn more

10-Day Weather Forecast

Advertisements
Track Severe Weather on mobile